Weather at Animas Air Park

Public forecast

Using degrees Fahrenheit for public forecast. Weather courtesy of forecast.io.

Closest aviation weather report (METAR) to Animas Air Park

Closest report is Durango La Plata County Airport, 6.3 nm (11.7 km) ESE. Retrieved 2020/11/28 00:53 UTC (39 minutes ago):

KDRO 280053Z AUTO 22005KT 10SM SCT080 OVC100 02/M03 A3022 RMK AO2 SLP264 T00171033

Closest aviation forecast (TAF) to Animas Air Park

Closest forecast is Durango La Plata County Airport, 6.3 nm (11.7 km) ESE. Retrieved 2020-11-28 00:30 UTC (1 hour ago):

TAF COR KDRO 272327Z 2800/2824 21010KT P6SM FEW100 BKN140 TEMPO 2800/2804 BKN070 FM280600 VRB05KT P6SM FEW040 SCT100 FM281400 VRB03KT P6SM FEW150 FM281800 23005KT P6SM FEW250